sensor_id;sensor_type;location;lat;lon;timestamp;temperature;humidity
70734;DHT22;58320;48.804;9.252;2023-08-12T00:01:23;19.70;81.30
70734;DHT22;58320;48.804;9.252;2023-08-12T00:03:50;19.70;81.30
70734;DHT22;58320;48.804;9.252;2023-08-12T00:06:17;19.70;81.30
70734;DHT22;58320;48.804;9.252;2023-08-12T00:08:42;19.70;81.50
70734;DHT22;58320;48.804;9.252;2023-08-12T00:11:08;19.60;81.40
70734;DHT22;58320;48.804;9.252;2023-08-12T00:13:34;19.60;81.40
70734;DHT22;58320;48.804;9.252;2023-08-12T00:15:59;19.60;81.50
70734;DHT22;58320;48.804;9.252;2023-08-12T00:18:25;19.50;81.50
70734;DHT22;58320;48.804;9.252;2023-08-12T00:20:51;19.50;81.60
70734;DHT22;58320;48.804;9.252;2023-08-12T00:23:17;19.60;81.70
70734;DHT22;58320;48.804;9.252;2023-08-12T00:25:43;19.50;81.70
70734;DHT22;58320;48.804;9.252;2023-08-12T00:28:08;19.60;81.50
70734;DHT22;58320;48.804;9.252;2023-08-12T00:30:35;19.60;81.90
70734;DHT22;58320;48.804;9.252;2023-08-12T00:33:02;19.50;81.60
70734;DHT22;58320;48.804;9.252;2023-08-12T00:35:28;19.50;81.60
70734;DHT22;58320;48.804;9.252;2023-08-12T00:37:53;19.50;81.70
70734;DHT22;58320;48.804;9.252;2023-08-12T00:40:19;19.50;81.80
70734;DHT22;58320;48.804;9.252;2023-08-12T00:42:45;19.50;81.60
70734;DHT22;58320;48.804;9.252;2023-08-12T00:45:12;19.40;81.50
70734;DHT22;58320;48.804;9.252;2023-08-12T00:47:38;19.40;81.60
70734;DHT22;58320;48.804;9.252;2023-08-12T00:50:06;19.40;81.80
70734;DHT22;58320;48.804;9.252;2023-08-12T00:52:33;19.30;81.90
70734;DHT22;58320;48.804;9.252;2023-08-12T00:54:59;19.30;82.20
70734;DHT22;58320;48.804;9.252;2023-08-12T00:57:25;19.20;82.40
70734;DHT22;58320;48.804;9.252;2023-08-12T00:59:51;19.20;82.60
70734;DHT22;58320;48.804;9.252;2023-08-12T01:02:18;19.10;83.40
70734;DHT22;58320;48.804;9.252;2023-08-12T01:04:44;19.10;83.40
70734;DHT22;58320;48.804;9.252;2023-08-12T01:07:10;19.10;84.20
70734;DHT22;58320;48.804;9.252;2023-08-12T01:09:36;19.00;84.00
70734;DHT22;58320;48.804;9.252;2023-08-12T01:12:41;19.00;84.10
70734;DHT22;58320;48.804;9.252;2023-08-12T01:15:12;18.90;84.30
70734;DHT22;58320;48.804;9.252;2023-08-12T01:17:42;18.80;84.90
70734;DHT22;58320;48.804;9.252;2023-08-12T01:20:09;18.90;85.50
70734;DHT22;58320;48.804;9.252;2023-08-12T01:22:38;18.90;85.70
70734;DHT22;58320;48.804;9.252;2023-08-12T01:25:05;18.90;85.80
70734;DHT22;58320;48.804;9.252;2023-08-12T01:27:31;18.90;85.20
70734;DHT22;58320;48.804;9.252;2023-08-12T01:29:57;18.80;85.00
70734;DHT22;58320;48.804;9.252;2023-08-12T01:32:25;18.80;85.10
70734;DHT22;58320;48.804;9.252;2023-08-12T01:37:45;18.80;85.30
70734;DHT22;58320;48.804;9.252;2023-08-12T01:40:11;18.80;85.30
70734;DHT22;58320;48.804;9.252;2023-08-12T01:42:41;18.80;85.50
70734;DHT22;58320;48.804;9.252;2023-08-12T01:45:07;18.80;86.20
